Time;durP1;ratioP1;P1;durP2;ratioP2;P2;SDS_P1;SDS_P2;PMS_P1;PMS_P2;Temp;Humidity;BMP_temperature;BMP_pressure;BME280_temperature;BME280_humidity;BME280_pressure;Samples;Min_cycle;Max_cycle;Signal;HPM_P1;HPM_P2
2022/10/15 03:02:06;;;;;;;0.50;0.50;;;15.90;95.80;;;;;;5397367;23;20560;-77
2022/10/15 03:04:33;;;;;;;0.70;0.50;;;16.10;95.80;;;;;;4995010;28;20482;-78
2022/10/15 03:07:00;;;;;;;0.50;0.50;;;16.10;95.80;;;;;;4995032;28;20445;-78
2022/10/15 03:09:27;;;;;;;0.60;0.50;;;16.00;95.80;;;;;;4995091;28;20938;-78
2022/10/15 03:11:53;;;;;;;0.50;0.50;;;16.00;95.80;;;;;;4994848;28;20509;-79
2022/10/15 03:14:20;;;;;;;0.60;0.50;;;16.10;95.80;;;;;;4994769;28;20449;-79
2022/10/15 03:16:47;;;;;;;0.50;0.47;;;16.10;95.80;;;;;;4995847;28;20508;-78
2022/10/15 03:19:15;;;;;;;0.50;0.50;;;16.10;95.80;;;;;;4994534;28;20449;-79
2022/10/15 03:21:41;;;;;;;0.57;0.50;;;16.20;95.80;;;;;;4994766;28;20476;-79
2022/10/15 03:24:08;;;;;;;0.57;0.50;;;16.40;95.80;;;;;;4994648;28;20441;-79
2022/10/15 03:26:35;;;;;;;0.60;0.50;;;16.40;95.60;;;;;;4994755;28;20454;-79
2022/10/15 03:29:02;;;;;;;0.50;0.50;;;16.40;95.80;;;;;;4994528;28;20826;-79
2022/10/15 03:31:28;;;;;;;1.23;0.50;;;16.40;95.50;;;;;;4994517;28;20469;-79
2022/10/15 03:33:55;;;;;;;0.60;0.60;;;16.40;95.60;;;;;;4994627;28;20445;-79
2022/10/15 03:36:23;;;;;;;0.60;0.50;;;16.50;95.20;;;;;;4994445;28;20956;-79
2022/10/15 03:38:50;;;;;;;0.50;0.50;;;16.50;95.00;;;;;;4995043;28;20472;-79
2022/10/15 03:41:17;;;;;;;0.60;0.50;;;16.50;95.20;;;;;;4994901;28;20474;-78
2022/10/15 03:43:43;;;;;;;0.50;0.50;;;16.60;95.10;;;;;;4994650;28;20454;-79
2022/10/15 03:46:10;;;;;;;0.60;0.50;;;16.70;94.80;;;;;;4995001;28;20493;-79
2022/10/15 03:48:37;;;;;;;0.60;0.50;;;16.60;94.50;;;;;;4994298;28;20453;-79
2022/10/15 03:51:04;;;;;;;0.57;0.53;;;16.40;95.20;;;;;;4994245;28;20473;-77
2022/10/15 03:53:32;;;;;;;0.60;0.50;;;16.30;95.60;;;;;;4994132;28;20461;-78
2022/10/15 03:56:03;;;;;;;0.50;0.50;;;16.40;95.80;;;;;;4994385;28;20454;-79
2022/10/15 03:58:30;;;;;;;0.67;0.60;;;16.40;95.80;;;;;;4994271;28;20429;-79
2022/10/15 04:00:56;;;;;;;0.50;0.50;;;16.50;95.60;;;;;;4993850;28;20477;-78
2022/10/15 04:03:23;;;;;;;0.60;0.60;;;16.50;95.30;;;;;;4994204;28;20436;-79
2022/10/15 04:05:50;;;;;;;0.60;0.50;;;16.50;95.40;;;;;;4994074;28;20855;-78
2022/10/15 04:08:17;;;;;;;0.60;0.50;;;16.40;95.70;;;;;;4994145;28;20544;-79
2022/10/15 04:10:46;;;;;;;0.60;0.60;;;16.30;95.80;;;;;;4994198;28;20469;-78
2022/10/15 04:13:12;;;;;;;0.60;0.50;;;16.40;95.80;;;;;;4994160;28;20460;-78
2022/10/15 04:15:39;;;;;;;0.50;0.50;;;16.40;95.80;;;;;;4994095;28;20449;-79
2022/10/15 04:18:06;;;;;;;1.10;0.50;;;16.40;95.70;;;;;;4994189;28;20449;-79
2022/10/15 04:20:33;;;;;;;0.60;0.50;;;16.40;95.50;;;;;;4993674;28;20831;-78
2022/10/15 04:22:59;;;;;;;1.13;0.50;;;16.40;95.50;;;;;;4994039;28;20460;-79
2022/10/15 04:25:26;;;;;;;0.60;0.50;;;16.30;95.80;;;;;;4993790;28;20481;-78
2022/10/15 04:27:54;;;;;;;0.60;0.50;;;16.30;95.80;;;;;;4994048;28;20445;-78
2022/10/15 04:30:21;;;;;;;0.60;0.60;;;16.40;95.80;;;;;;4994097;28;20453;-78
2022/10/15 04:32:50;;;;;;;0.60;0.50;;;16.40;95.60;;;;;;4993774;28;20460;-78
2022/10/15 04:35:17;;;;;;;0.50;0.50;;;16.50;95.50;;;;;;4995239;28;20445;-79
2022/10/15 04:37:44;;;;;;;0.57;0.50;;;16.50;94.90;;;;;;4997872;28;20918;-78
2022/10/15 04:40:12;;;;;;;0.50;0.50;;;16.50;95.40;;;;;;4997767;28;20464;-78
2022/10/15 04:42:55;;;;;;;0.60;0.50;;;16.60;95.10;;;;;;4997773;28;20890;-78
2022/10/15 04:45:21;;;;;;;0.50;0.50;;;16.50;95.10;;;;;;4995734;28;20483;-78
2022/10/15 04:47:48;;;;;;;0.60;0.50;;;16.60;94.70;;;;;;4999626;28;20948;-78
2022/10/15 04:50:15;;;;;;;0.60;0.50;;;16.60;94.60;;;;;;4999418;28;20452;-78
2022/10/15 04:52:42;;;;;;;0.60;0.50;;;16.50;94.90;;;;;;4997121;28;20980;-78
2022/10/15 04:55:09;;;;;;;0.60;0.50;;;16.50;94.80;;;;;;4997337;28;20445;-78
2022/10/15 04:57:36;;;;;;;0.50;0.50;;;16.40;95.30;;;;;;4997287;28;20844;-78
2022/10/15 05:00:05;;;;;;;0.50;0.50;;;16.50;95.50;;;;;;4997579;28;20477;-76
2022/10/15 05:02:32;;;;;;;0.50;0.50;;;16.60;95.30;;;;;;4996943;28;20481;-76
2022/10/15 05:04:58;;;;;;;0.60;0.50;;;16.60;94.80;;;;;;4997175;28;20539;-78
2022/10/15 05:07:25;;;;;;;0.60;0.60;;;16.70;94.90;;;;;;4997644;28;20460;-77
2022/10/15 05:09:52;;;;;;;0.60;0.50;;;16.60;94.20;;;;;;4997838;28;20457;-78
2022/10/15 05:12:19;;;;;;;0.50;0.50;;;16.60;94.40;;;;;;4998098;28;20810;-79
2022/10/15 05:14:45;;;;;;;0.60;0.60;;;16.60;94.60;;;;;;5000248;28;20995;-79
2022/10/15 05:17:13;;;;;;;0.57;0.50;;;16.70;94.00;;;;;;4998964;28;20859;-79
2022/10/15 05:19:40;;;;;;;0.60;0.50;;;16.70;94.10;;;;;;4998313;28;20445;-78
2022/10/15 05:22:07;;;;;;;0.50;0.47;;;16.70;93.60;;;;;;4997594;28;20461;-78
2022/10/15 05:24:33;;;;;;;0.60;0.60;;;16.60;94.10;;;;;;5003410;28;20507;-78
2022/10/15 05:27:00;;;;;;;0.60;0.50;;;16.60;93.90;;;;;;4997204;28;20460;-79
2022/10/15 05:29:27;;;;;;;0.60;0.50;;;16.50;93.90;;;;;;4997305;28;20453;-78
2022/10/15 05:31:53;;;;;;;0.60;0.50;;;16.50;94.50;;;;;;4996860;28;20477;-78
2022/10/15 05:34:22;;;;;;;0.60;0.50;;;16.50;94.10;;;;;;4996740;28;20457;-78
2022/10/15 05:36:48;;;;;;;0.50;0.50;;;16.50;94.30;;;;;;4996580;28;20449;-78
2022/10/15 05:39:15;;;;;;;0.70;0.50;;;16.40;94.00;;;;;;4996363;28;20999;-78
2022/10/15 05:41:42;;;;;;;0.70;0.50;;;16.40;94.60;;;;;;4996801;28;20477;-78
2022/10/15 05:44:08;;;;;;;0.60;0.50;;;16.30;94.60;;;;;;4996611;28;20456;-78
2022/10/15 05:46:35;;;;;;;0.50;0.50;;;16.30;94.80;;;;;;4994935;28;21008;-78
2022/10/15 05:49:02;;;;;;;0.50;0.50;;;16.30;94.60;;;;;;4996353;28;20864;-78
2022/10/15 05:51:30;;;;;;;0.60;0.60;;;16.30;94.60;;;;;;4996358;28;20470;-78
2022/10/15 05:53:57;;;;;;;0.60;0.50;;;16.30;94.70;;;;;;4996363;28;20452;-78
2022/10/15 05:56:25;;;;;;;0.60;0.50;;;16.40;94.80;;;;;;4996355;28;20465;-77
2022/10/15 05:58:52;;;;;;;0.60;0.50;;;16.40;94.00;;;;;;4996204;28;20457;-76
2022/10/15 06:01:19;;;;;;;0.60;0.60;;;16.40;94.30;;;;;;4995913;28;20558;-79
2022/10/15 06:03:46;;;;;;;0.57;0.50;;;16.40;93.80;;;;;;4996268;28;20453;-79
2022/10/15 06:06:17;;;;;;;0.50;0.50;;;16.40;94.00;;;;;;4996282;28;20485;-79
2022/10/15 06:08:46;;;;;;;0.60;0.50;;;16.30;94.30;;;;;;4996135;28;20450;-78
2022/10/15 06:11:13;;;;;;;0.50;0.50;;;16.10;93.90;;;;;;4996040;28;20470;-77
2022/10/15 06:13:41;;;;;;;0.77;0.60;;;16.10;94.50;;;;;;4996602;28;20448;-79
2022/10/15 06:16:08;;;;;;;1.00;0.67;;;16.10;94.60;;;;;;4996892;28;20446;-79
2022/10/15 06:18:35;;;;;;;0.70;0.60;;;16.20;93.90;;;;;;4995936;28;20937;-78
2022/10/15 06:21:02;;;;;;;0.70;0.60;;;16.10;94.20;;;;;;4995856;28;20472;-78
2022/10/15 06:23:29;;;;;;;0.60;0.50;;;16.00;94.30;;;;;;4996022;28;20453;-77
2022/10/15 06:26:01;;;;;;;0.60;0.50;;;16.00;94.30;;;;;;4995645;28;20488;-77
2022/10/15 06:28:27;;;;;;;0.60;0.50;;;16.20;94.30;;;;;;4995743;28;20429;-77
2022/10/15 06:30:57;;;;;;;0.50;0.50;;;16.00;94.20;;;;;;4999538;28;20466;-78
2022/10/15 06:33:24;;;;;;;0.60;0.60;;;16.10;94.20;;;;;;5007960;28;20459;-78
2022/10/15 06:35:50;;;;;;;0.70;0.50;;;16.10;93.80;;;;;;5009019;28;20452;-77
2022/10/15 06:38:17;;;;;;;0.60;0.60;;;16.30;93.60;;;;;;5007565;28;20477;-78
2022/10/15 06:40:45;;;;;;;0.63;0.63;;;16.30;92.90;;;;;;5002685;28;20477;-77
2022/10/15 06:43:13;;;;;;;0.50;0.50;;;16.20;93.10;;;;;;5007286;28;20797;-77
2022/10/15 06:45:41;;;;;;;0.60;0.57;;;16.30;94.30;;;;;;5007300;28;20490;-76
2022/10/15 06:48:08;;;;;;;0.50;0.50;;;16.30;93.20;;;;;;5007817;28;20461;-76
2022/10/15 06:50:37;;;;;;;0.60;0.50;;;16.30;92.90;;;;;;5006652;28;20952;-75
2022/10/15 06:53:05;;;;;;;0.60;0.60;;;16.30;93.00;;;;;;5000310;28;20453;-74
2022/10/15 06:55:32;;;;;;;0.60;0.50;;;16.40;92.70;;;;;;4998524;28;20450;-77
2022/10/15 06:58:02;;;;;;;0.60;0.60;;;16.40;91.90;;;;;;4998645;28;20445;-77
2022/10/15 07:00:30;;;;;;;0.70;0.50;;;16.20;92.30;;;;;;4999079;28;20453;-77
2022/10/15 07:02:57;;;;;;;0.60;0.50;;;16.10;92.80;;;;;;4999205;28;20801;-77
2022/10/15 07:05:23;;;;;;;0.60;0.50;;;16.20;92.90;;;;;;5000246;28;20481;-76
2022/10/15 07:07:54;;;;;;;0.60;0.60;;;16.10;92.60;;;;;;5000330;28;20542;-78
2022/10/15 07:10:21;;;;;;;0.50;0.50;;;16.20;92.50;;;;;;5001102;28;20453;-77
2022/10/15 07:12:48;;;;;;;0.60;0.60;;;16.20;92.70;;;;;;5000215;28;20556;-76
2022/10/15 07:15:15;;;;;;;0.50;0.50;;;16.20;92.90;;;;;;4999552;28;20516;-77
2022/10/15 07:17:48;;;;;;;0.60;0.50;;;16.40;91.90;;;;;;4999522;28;20453;-77
2022/10/15 07:20:15;;;;;;;0.60;0.50;;;16.30;91.60;;;;;;5001847;28;20434;-78
2022/10/15 07:22:42;;;;;;;1.30;0.60;;;16.40;92.10;;;;;;5001451;28;20458;-79
2022/10/15 07:25:09;;;;;;;0.60;0.50;;;16.50;91.70;;;;;;4999331;28;20454;-77
2022/10/15 07:27:36;;;;;;;0.70;0.50;;;16.40;91.60;;;;;;4994546;28;20446;-77
2022/10/15 07:30:04;;;;;;;0.60;0.50;;;16.50;91.60;;;;;;4994463;28;20476;-77
2022/10/15 07:32:31;;;;;;;0.90;0.60;;;16.50;91.60;;;;;;4994398;28;20496;-79
2022/10/15 07:34:59;;;;;;;0.53;0.50;;;16.60;92.00;;;;;;4994600;28;20456;-78
2022/10/15 07:37:25;;;;;;;0.60;0.50;;;16.60;91.30;;;;;;4994457;28;20807;-77
2022/10/15 07:39:52;;;;;;;0.50;0.50;;;16.50;91.70;;;;;;4994645;28;20441;-78
2022/10/15 07:42:19;;;;;;;2.80;0.60;;;16.30;91.80;;;;;;4994253;28;20838;-78
2022/10/15 07:44:46;;;;;;;0.60;0.50;;;16.20;92.60;;;;;;4994387;28;20461;-78
2022/10/15 07:47:12;;;;;;;0.60;0.50;;;16.10;93.10;;;;;;4994301;28;20488;-78
2022/10/15 07:49:39;;;;;;;0.60;0.50;;;16.10;93.60;;;;;;4994291;28;20496;-78
2022/10/15 07:52:08;;;;;;;0.60;0.60;;;16.10;93.40;;;;;;4994313;28;20465;-78
2022/10/15 07:54:35;;;;;;;0.60;0.60;;;16.10;93.70;;;;;;4994416;28;20877;-78
2022/10/15 07:57:01;;;;;;;0.60;0.50;;;16.20;94.00;;;;;;4994261;28;20441;-78
2022/10/15 07:59:28;;;;;;;0.97;0.50;;;16.20;94.00;;;;;;4994350;28;20798;-78
2022/10/15 08:01:55;;;;;;;0.60;0.60;;;16.40;93.80;;;;;;4994138;28;20481;-79
2022/10/15 08:04:22;;;;;;;0.60;0.60;;;16.50;93.20;;;;;;4994404;28;20460;-79
2022/10/15 08:06:48;;;;;;;0.60;0.50;;;16.60;93.50;;;;;;4993974;28;20850;-78
2022/10/15 08:09:17;;;;;;;1.20;0.50;;;16.80;92.70;;;;;;4995140;28;20453;-78
2022/10/15 08:11:43;;;;;;;0.60;0.60;;;16.80;92.50;;;;;;4998001;28;20469;-76
2022/10/15 08:14:10;;;;;;;0.57;0.50;;;16.80;92.40;;;;;;4998692;28;20945;-78
2022/10/15 08:16:37;;;;;;;0.50;0.50;;;16.80;92.60;;;;;;4998411;28;20467;-78
2022/10/15 08:19:03;;;;;;;0.60;0.53;;;16.90;92.30;;;;;;4998107;28;20449;-78
2022/10/15 08:21:30;;;;;;;0.60;0.50;;;16.90;92.50;;;;;;4998146;28;20472;-78
2022/10/15 08:23:57;;;;;;;0.60;0.50;;;16.80;92.80;;;;;;4998493;28;20452;-78
2022/10/15 08:26:25;;;;;;;0.60;0.57;;;17.00;92.70;;;;;;4998490;28;20481;-78
2022/10/15 08:28:52;;;;;;;0.60;0.50;;;16.90;93.40;;;;;;4998335;28;20511;-78
2022/10/15 08:31:19;;;;;;;0.60;0.50;;;16.90;93.20;;;;;;4998227;28;20473;-78
2022/10/15 08:33:45;;;;;;;0.60;0.50;;;17.00;93.40;;;;;;4999337;28;20445;-79
2022/10/15 08:36:12;;;;;;;0.60;0.50;;;17.10;93.30;;;;;;4998120;28;20525;-79
2022/10/15 08:38:39;;;;;;;0.50;0.50;;;17.20;93.30;;;;;;4999207;28;20456;-79
2022/10/15 08:41:16;;;;;;;0.60;0.50;;;17.10;93.20;;;;;;4998643;28;20461;-78
2022/10/15 08:43:47;;;;;;;0.70;0.60;;;17.10;93.60;;;;;;4998993;28;20429;-78
2022/10/15 08:46:18;;;;;;;0.60;0.50;;;17.10;93.80;;;;;;4999901;28;20473;-78
2022/10/15 08:48:49;;;;;;;0.60;0.60;;;17.10;93.90;;;;;;4999371;28;20905;-79
2022/10/15 08:51:19;;;;;;;0.60;0.60;;;17.20;93.70;;;;;;4999778;28;20524;-78
2022/10/15 08:53:56;;;;;;;0.60;0.50;;;17.30;93.70;;;;;;5004381;28;20850;-78
2022/10/15 08:56:27;;;;;;;0.60;0.50;;;17.30;93.30;;;;;;4997743;28;20425;-78
2022/10/15 08:59:01;;;;;;;0.60;0.50;;;17.20;93.80;;;;;;4997716;28;20437;-78
2022/10/15 09:01:35;;;;;;;0.57;0.50;;;17.20;93.70;;;;;;4997927;28;20488;-79
2022/10/15 09:04:13;;;;;;;0.60;0.50;;;17.10;94.00;;;;;;4998569;28;20437;-79
2022/10/15 09:06:40;;;;;;;0.70;0.50;;;17.10;94.70;;;;;;4997914;28;20560;-79
2022/10/15 09:09:15;;;;;;;0.60;0.50;;;17.20;94.80;;;;;;4998147;28;20460;-79
2022/10/15 09:11:52;;;;;;;0.80;0.60;;;17.30;93.90;;;;;;4998605;28;20468;-79
2022/10/15 09:14:24;;;;;;;0.60;0.50;;;17.40;94.40;;;;;;4998351;28;20433;-79
2022/10/15 09:16:51;;;;;;;0.60;0.50;;;17.60;93.60;;;;;;4999801;28;20433;-79
2022/10/15 09:19:20;;;;;;;0.60;0.60;;;17.50;93.00;;;;;;4998216;28;20456;-79
2022/10/15 09:21:49;;;;;;;0.73;0.50;;;17.70;92.90;;;;;;4997559;28;20980;-79
2022/10/15 09:24:21;;;;;;;0.57;0.50;;;17.80;92.30;;;;;;4998404;28;20460;-79
2022/10/15 09:26:57;;;;;;;0.60;0.50;;;17.80;91.70;;;;;;4998312;28;20972;-79
2022/10/15 09:29:33;;;;;;;0.60;0.50;;;17.80;91.40;;;;;;4998043;28;20429;-79
2022/10/15 09:32:11;;;;;;;0.60;0.50;;;17.70;91.20;;;;;;4998072;28;20803;-78
2022/10/15 09:34:43;;;;;;;0.60;0.50;;;17.70;91.80;;;;;;4997315;28;20854;-79
2022/10/15 09:37:17;;;;;;;0.57;0.50;;;17.60;91.80;;;;;;4998512;28;20429;-79
2022/10/15 09:39:57;;;;;;;0.57;0.50;;;17.50;91.50;;;;;;4997782;28;20479;-79
2022/10/15 09:42:30;;;;;;;0.60;0.50;;;17.40;91.80;;;;;;4998196;28;20469;-78
2022/10/15 09:45:01;;;;;;;0.50;0.50;;;17.60;92.10;;;;;;4998746;28;20465;-79
2022/10/15 09:47:30;;;;;;;1.00;0.50;;;17.70;93.90;;;;;;4997701;28;20465;-78
2022/10/15 09:49:57;;;;;;;0.57;0.50;;;17.90;90.90;;;;;;4997341;28;20453;-78
2022/10/15 09:52:35;;;;;;;0.60;0.50;;;17.80;91.00;;;;;;4997392;28;20469;-78
2022/10/15 09:55:10;;;;;;;0.57;0.50;;;17.90;90.20;;;;;;4996650;28;20472;-78
2022/10/15 09:57:38;;;;;;;0.60;0.50;;;18.00;90.20;;;;;;4996742;28;20434;-79
2022/10/15 10:00:10;;;;;;;0.63;0.50;;;18.20;91.30;;;;;;4997939;28;20453;-80
2022/10/15 10:02:37;;;;;;;0.60;0.50;;;18.40;88.40;;;;;;4998240;28;20504;-78
2022/10/15 10:05:20;;;;;;;0.60;0.60;;;18.40;88.50;;;;;;4996586;28;20498;-78
2022/10/15 10:07:46;;;;;;;0.60;0.60;;;18.60;88.30;;;;;;4996546;28;20505;-78
2022/10/15 10:10:24;;;;;;;0.60;0.50;;;18.90;88.90;;;;;;4997344;28;20457;-75
2022/10/15 10:12:51;;;;;;;0.70;0.60;;;18.90;86.60;;;;;;5001266;28;20461;-80
2022/10/15 10:15:32;;;;;;;0.87;0.70;;;18.90;85.70;;;;;;4998406;28;20453;-79
2022/10/15 10:18:00;;;;;;;0.60;0.60;;;18.90;86.00;;;;;;4998611;28;20429;-74
2022/10/15 10:20:28;;;;;;;0.80;0.60;;;18.90;85.30;;;;;;5000046;28;20487;-80
2022/10/15 10:22:57;;;;;;;0.60;0.60;;;18.80;85.70;;;;;;4998038;28;20450;-77
2022/10/15 10:25:34;;;;;;;0.70;0.60;;;18.80;87.20;;;;;;4996764;28;20457;-75
2022/10/15 10:28:14;;;;;;;0.60;0.60;;;18.80;86.50;;;;;;4995806;28;20468;-79
2022/10/15 10:30:51;;;;;;;0.60;0.50;;;18.80;84.00;;;;;;4997041;28;20863;-75
2022/10/15 10:33:26;;;;;;;0.60;0.50;;;18.70;85.30;;;;;;4995687;28;20437;-73
2022/10/15 10:35:53;;;;;;;0.90;0.60;;;18.80;84.80;;;;;;4996330;28;20440;-76
2022/10/15 10:38:22;;;;;;;0.60;0.50;;;18.90;85.50;;;;;;4996058;28;20445;-75
2022/10/15 10:40:54;;;;;;;0.60;0.50;;;19.00;85.50;;;;;;4995557;28;20988;-75
2022/10/15 10:43:25;;;;;;;0.70;0.60;;;19.10;85.40;;;;;;4995969;28;20454;-76
2022/10/15 10:45:58;;;;;;;0.60;0.60;;;19.20;82.80;;;;;;4995460;28;20433;-76
2022/10/15 10:48:27;;;;;;;0.70;0.50;;;19.30;83.40;;;;;;4995927;28;20469;-75
2022/10/15 10:51:07;;;;;;;0.90;0.70;;;19.40;83.90;;;;;;4995219;28;20473;-76
2022/10/15 10:53:37;;;;;;;0.60;0.50;;;19.20;82.30;;;;;;4995426;28;20434;-75
2022/10/15 10:56:07;;;;;;;0.60;0.60;;;19.40;81.80;;;;;;4995197;28;20453;-75
2022/10/15 10:58:34;;;;;;;0.57;0.53;;;19.30;80.30;;;;;;4995102;28;20457;-75
2022/10/15 11:01:02;;;;;;;0.70;0.60;;;19.10;80.90;;;;;;4996276;28;20508;-76
2022/10/15 11:03:35;;;;;;;0.60;0.60;;;18.80;82.00;;;;;;4997010;28;20418;-76
2022/10/15 11:06:38;;;;;;;0.80;0.60;;;18.80;82.70;;;;;;4997927;28;20453;-76
2022/10/15 11:09:23;;;;;;;0.60;0.50;;;19.00;84.20;;;;;;4996949;28;20449;-76
2022/10/15 11:12:05;;;;;;;1.13;0.57;;;19.00;80.60;;;;;;4997304;28;20460;-76
2022/10/15 11:14:45;;;;;;;0.60;0.60;;;19.10;81.40;;;;;;4997870;28;20524;-76
2022/10/15 11:17:22;;;;;;;0.60;0.50;;;19.30;82.30;;;;;;4997837;28;20449;-75
2022/10/15 11:19:55;;;;;;;1.13;0.60;;;19.10;80.40;;;;;;4996892;28;20433;-74
2022/10/15 11:22:42;;;;;;;0.60;0.60;;;19.00;80.40;;;;;;4998984;28;20496;-75
2022/10/15 11:25:21;;;;;;;0.70;0.60;;;19.10;81.30;;;;;;4999403;28;20484;-74
2022/10/15 11:28:07;;;;;;;0.60;0.50;;;18.90;79.90;;;;;;4997727;28;20992;-74
2022/10/15 11:30:45;;;;;;;0.60;0.57;;;18.80;81.90;;;;;;4997554;28;20437;-75
2022/10/15 11:33:29;;;;;;;0.60;0.50;;;19.00;81.90;;;;;;4998470;28;20433;-74
2022/10/15 11:36:07;;;;;;;0.70;0.70;;;19.10;80.80;;;;;;4998674;28;20437;-75
2022/10/15 11:38:40;;;;;;;0.60;0.50;;;19.10;80.60;;;;;;4998410;28;20429;-76
2022/10/15 11:41:30;;;;;;;0.60;0.60;;;19.30;80.70;;;;;;4997551;28;20837;-76
2022/10/15 11:44:28;;;;;;;0.70;0.50;;;19.30;79.50;;;;;;4997125;28;20432;-72
2022/10/15 11:47:07;;;;;;;0.60;0.50;;;19.20;79.70;;;;;;4998576;28;20468;-73
2022/10/15 11:49:49;;;;;;;0.60;0.50;;;19.10;79.80;;;;;;4997549;28;20425;-72
2022/10/15 11:52:30;;;;;;;1.13;0.50;;;19.00;78.90;;;;;;4996726;28;20482;-72
2022/10/15 11:55:03;;;;;;;0.70;0.53;;;19.00;79.60;;;;;;4996615;28;20416;-76
2022/10/15 11:57:33;;;;;;;0.60;0.60;;;19.00;79.50;;;;;;4998122;28;20425;-74
2022/10/15 12:00:04;;;;;;;0.60;0.50;;;19.10;79.90;;;;;;4999824;28;20511;-76
2022/10/15 12:02:34;;;;;;;1.30;0.57;;;19.30;78.70;;;;;;4997912;28;20495;-76
2022/10/15 12:05:08;;;;;;;0.60;0.57;;;19.50;78.50;;;;;;4998258;28;20430;-76
2022/10/15 12:07:40;;;;;;;0.60;0.50;;;19.60;77.90;;;;;;4998035;28;20472;-76
2022/10/15 12:10:17;;;;;;;0.60;0.50;;;19.50;77.30;;;;;;4998072;28;20448;-76
2022/10/15 12:12:49;;;;;;;0.90;0.60;;;19.50;78.00;;;;;;4998306;28;20523;-75
2022/10/15 12:15:26;;;;;;;0.60;0.50;;;19.50;76.80;;;;;;4997819;28;20444;-77
2022/10/15 12:18:00;;;;;;;0.60;0.50;;;19.40;79.10;;;;;;4998484;28;20426;-76
2022/10/15 12:20:28;;;;;;;0.60;0.50;;;19.30;79.20;;;;;;5000942;28;20440;-77
2022/10/15 12:22:58;;;;;;;0.60;0.50;;;19.40;78.60;;;;;;4999523;28;20833;-77
2022/10/15 12:25:48;;;;;;;0.87;0.50;;;19.30;78.60;;;;;;4999418;28;20456;-76
2022/10/15 12:28:19;;;;;;;0.60;0.50;;;19.30;78.10;;;;;;4979461;28;20485;-76
2022/10/15 12:31:03;;;;;;;0.60;0.50;;;19.00;78.30;;;;;;4999546;28;20835;-77
2022/10/15 12:33:34;;;;;;;0.60;0.50;;;19.00;79.60;;;;;;4996139;28;20449;-77
2022/10/15 12:36:08;;;;;;;0.60;0.50;;;18.90;80.20;;;;;;4993759;28;20512;-77
2022/10/15 12:38:36;;;;;;;0.60;0.60;;;18.80;80.60;;;;;;4993689;28;20445;-77
2022/10/15 12:41:07;;;;;;;0.60;0.60;;;18.80;81.40;;;;;;4993555;28;20843;-77
2022/10/15 12:43:37;;;;;;;0.60;0.50;;;18.80;81.90;;;;;;4993691;28;20449;-77
2022/10/15 12:46:06;;;;;;;0.60;0.60;;;18.80;81.60;;;;;;4993692;28;20434;-77
2022/10/15 12:48:36;;;;;;;0.60;0.50;;;18.90;82.20;;;;;;4993840;28;20489;-77
2022/10/15 12:51:39;;;;;;;0.67;0.50;;;18.60;81.30;;;;;;4994073;28;20478;-76
2022/10/15 12:54:42;;;;;;;0.87;0.50;;;18.50;82.90;;;;;;4994819;28;20901;-77
2022/10/15 12:57:46;;;;;;;0.60;0.50;;;18.40;83.30;;;;;;4996008;28;20436;-76
2022/10/15 13:00:35;;;;;;;0.60;0.60;;;18.20;82.80;;;;;;4996877;28;20991;-76
2022/10/15 13:03:15;;;;;;;1.17;0.60;;;18.10;82.50;;;;;;4997165;28;20432;-76
2022/10/15 13:05:42;;;;;;;0.60;0.50;;;18.10;83.10;;;;;;4997078;28;20430;-76
2022/10/15 13:08:16;;;;;;;0.80;0.50;;;18.20;83.20;;;;;;4996957;28;20484;-76
2022/10/15 13:10:49;;;;;;;0.60;0.60;;;18.20;82.30;;;;;;4996922;28;20429;-76
2022/10/15 13:13:19;;;;;;;0.70;0.60;;;18.30;82.50;;;;;;4996573;28;20856;-76
2022/10/15 13:15:55;;;;;;;0.60;0.50;;;18.40;82.90;;;;;;4996888;28;20496;-76
2022/10/15 13:18:23;;;;;;;0.60;0.50;;;18.40;81.30;;;;;;4996577;28;20957;-76
2022/10/15 13:20:53;;;;;;;0.60;0.50;;;18.40;81.90;;;;;;4996775;28;20571;-76
2022/10/15 13:23:21;;;;;;;0.70;0.60;;;18.50;81.50;;;;;;4996535;28;21051;-76
2022/10/15 13:25:48;;;;;;;0.57;0.50;;;18.40;81.90;;;;;;4996788;28;20468;-76
2022/10/15 13:28:32;;;;;;;0.60;0.50;;;18.30;82.30;;;;;;4996679;28;20481;-76
2022/10/15 13:31:02;;;;;;;0.60;0.50;;;18.10;83.60;;;;;;4996625;28;20473;-76
2022/10/15 13:33:29;;;;;;;0.60;0.50;;;18.10;85.10;;;;;;4996588;28;20454;-76
2022/10/15 13:35:56;;;;;;;0.60;0.50;;;18.20;84.20;;;;;;4996535;28;20445;-76
2022/10/15 13:38:25;;;;;;;0.60;0.50;;;18.10;84.60;;;;;;4996461;28;20547;-76
2022/10/15 13:40:54;;;;;;;0.60;0.60;;;18.10;84.10;;;;;;4996408;28;20482;-76
2022/10/15 13:43:21;;;;;;;0.60;0.50;;;18.10;85.50;;;;;;4996459;28;20453;-76
2022/10/15 13:45:50;;;;;;;0.60;0.50;;;18.00;85.70;;;;;;4996365;28;20449;-76
2022/10/15 13:48:24;;;;;;;0.60;0.60;;;18.10;86.50;;;;;;4996334;28;20488;-76
2022/10/15 13:50:52;;;;;;;0.60;0.60;;;17.90;85.90;;;;;;4996055;28;20469;-76
2022/10/15 13:53:26;;;;;;;0.63;0.60;;;17.70;86.90;;;;;;4996234;28;20449;-76
2022/10/15 13:55:55;;;;;;;0.60;0.50;;;17.70;87.10;;;;;;4996238;28;20441;-76
2022/10/15 13:58:24;;;;;;;0.80;0.60;;;17.60;87.60;;;;;;4995993;28;20444;-76
2022/10/15 14:00:55;;;;;;;0.60;0.50;;;17.50;86.80;;;;;;4995901;28;20482;-76
2022/10/15 14:03:24;;;;;;;2.23;0.53;;;17.50;87.50;;;;;;4996100;28;20433;-76
2022/10/15 14:05:53;;;;;;;0.60;0.50;;;17.50;87.70;;;;;;4996069;28;20456;-77
2022/10/15 14:08:27;;;;;;;0.60;0.50;;;17.60;87.50;;;;;;4994862;28;20477;-76
2022/10/15 14:10:56;;;;;;;0.60;0.50;;;17.50;87.10;;;;;;4995845;28;20469;-76
2022/10/15 14:13:24;;;;;;;0.60;0.50;;;17.50;87.60;;;;;;4995853;28;20449;-76
2022/10/15 14:15:58;;;;;;;0.60;0.50;;;17.60;86.50;;;;;;4995896;28;20450;-76
2022/10/15 14:18:38;;;;;;;0.60;0.50;;;17.70;86.10;;;;;;4995788;28;20532;-76
2022/10/15 14:21:11;;;;;;;0.60;0.50;;;17.60;86.60;;;;;;4995670;28;20469;-76
2022/10/15 14:23:39;;;;;;;0.50;0.50;;;17.80;86.30;;;;;;4995773;28;20510;-76
2022/10/15 14:26:06;;;;;;;0.63;0.60;;;17.80;85.90;;;;;;4995618;28;20504;-76
2022/10/15 14:28:34;;;;;;;0.60;0.53;;;17.90;86.60;;;;;;4995236;28;20999;-77
2022/10/15 14:31:01;;;;;;;0.60;0.50;;;17.80;85.70;;;;;;4996290;28;20480;-76
2022/10/15 14:33:42;;;;;;;0.60;0.60;;;17.90;86.00;;;;;;4981410;28;20454;-77
2022/10/15 14:36:13;;;;;;;0.60;0.60;;;18.10;86.00;;;;;;4997437;28;20436;-77
2022/10/15 14:38:41;;;;;;;0.57;0.50;;;18.10;86.20;;;;;;4997698;28;20423;-76
2022/10/15 14:41:24;;;;;;;1.97;0.70;;;18.20;85.30;;;;;;4997266;28;20787;-76
2022/10/15 14:44:04;;;;;;;0.60;0.50;;;18.20;84.40;;;;;;4998146;28;20442;-77
2022/10/15 14:46:39;;;;;;;0.60;0.60;;;18.30;84.30;;;;;;4997501;28;20769;-77
2022/10/15 14:49:33;;;;;;;0.60;0.50;;;18.30;84.50;;;;;;4997750;28;20456;-77
2022/10/15 14:52:04;;;;;;;0.60;0.60;;;18.30;84.00;;;;;;4997519;28;20465;-76
2022/10/15 14:54:38;;;;;;;0.60;0.60;;;18.40;83.50;;;;;;4997072;28;20444;-76
2022/10/15 14:57:11;;;;;;;0.60;0.60;;;18.40;84.50;;;;;;4996978;28;20433;-76
2022/10/15 14:59:38;;;;;;;0.70;0.60;;;18.30;83.80;;;;;;4997349;28;20449;-76
2022/10/15 15:02:07;;;;;;;0.60;0.50;;;18.40;83.30;;;;;;4997559;28;20496;-76
2022/10/15 15:04:38;;;;;;;0.60;0.60;;;18.30;84.40;;;;;;4997706;28;20461;-77
2022/10/15 15:07:17;;;;;;;0.60;0.50;;;18.30;84.00;;;;;;4998960;28;20793;-76
2022/10/15 15:09:47;;;;;;;0.73;0.60;;;18.40;83.40;;;;;;4997282;28;20950;-77
2022/10/15 15:12:18;;;;;;;0.60;0.50;;;18.30;82.60;;;;;;4996881;28;20488;-76
2022/10/15 15:14:45;;;;;;;0.60;0.50;;;18.20;82.70;;;;;;4996593;28;20454;-76
2022/10/15 15:17:17;;;;;;;0.70;0.60;;;18.30;83.10;;;;;;4997865;28;20463;-76
2022/10/15 15:19:45;;;;;;;0.57;0.50;;;18.40;83.50;;;;;;4995801;28;20445;-76
2022/10/15 15:22:15;;;;;;;0.60;0.53;;;18.60;83.30;;;;;;4996266;28;20469;-76
2022/10/15 15:24:42;;;;;;;0.60;0.60;;;18.50;82.90;;;;;;4996904;28;20454;-76
2022/10/15 15:27:20;;;;;;;0.73;0.50;;;18.60;82.20;;;;;;4997495;28;20496;-76
2022/10/15 15:29:47;;;;;;;0.60;0.50;;;18.70;81.30;;;;;;4996328;28;20479;-76
2022/10/15 15:32:14;;;;;;;0.60;0.57;;;18.70;81.40;;;;;;4996762;28;20469;-76
2022/10/15 15:34:41;;;;;;;0.60;0.50;;;18.70;81.20;;;;;;4997006;28;20453;-77
2022/10/15 15:37:14;;;;;;;0.60;0.50;;;18.70;81.20;;;;;;4996850;28;20457;-76
2022/10/15 15:39:41;;;;;;;0.60;0.60;;;18.70;81.30;;;;;;4996732;28;20488;-76
2022/10/15 15:42:11;;;;;;;0.60;0.60;;;18.70;81.80;;;;;;4997125;28;20450;-76
2022/10/15 15:44:38;;;;;;;0.60;0.50;;;18.50;81.70;;;;;;4996934;28;20780;-76
2022/10/15 15:47:05;;;;;;;0.93;0.60;;;18.20;81.80;;;;;;4997505;28;20453;-76
2022/10/15 15:49:32;;;;;;;0.80;0.60;;;18.10;83.40;;;;;;4999043;28;20512;-76
2022/10/15 15:51:58;;;;;;;0.93;0.50;;;17.90;82.60;;;;;;4999059;28;20476;-76
2022/10/15 15:54:27;;;;;;;0.60;0.50;;;17.90;83.00;;;;;;4999034;28;20449;-76
2022/10/15 15:56:53;;;;;;;0.60;0.50;;;17.90;83.30;;;;;;4998704;28;20448;-77
2022/10/15 15:59:20;;;;;;;1.10;0.60;;;18.00;82.50;;;;;;4998389;28;20457;-76
2022/10/15 16:01:47;;;;;;;0.60;0.50;;;17.90;82.40;;;;;;4997360;28;20485;-76
2022/10/15 16:04:14;;;;;;;0.60;0.50;;;17.90;82.20;;;;;;4997027;28;20445;-76
2022/10/15 16:06:41;;;;;;;0.83;0.60;;;17.90;82.10;;;;;;4997311;28;20456;-76